sensor_id;sensor_type;location;lat;lon;timestamp;P1;durP1;ratioP1;P2;durP2;ratioP2
56043;SDS011;41912;51.022;3.664;2022-10-31T00:01:58;6.03;;;3.80;;
56043;SDS011;41912;51.022;3.664;2022-10-31T00:04:23;9.52;;;4.10;;
56043;SDS011;41912;51.022;3.664;2022-10-31T00:06:49;5.80;;;3.70;;
56043;SDS011;41912;51.022;3.664;2022-10-31T00:09:14;11.27;;;3.60;;
56043;SDS011;41912;51.022;3.664;2022-10-31T00:11:40;9.60;;;3.78;;
56043;SDS011;41912;51.022;3.664;2022-10-31T00:14:06;8.68;;;3.92;;
56043;SDS011;41912;51.022;3.664;2022-10-31T00:16:31;8.85;;;3.90;;
56043;SDS011;41912;51.022;3.664;2022-10-31T00:18:58;6.30;;;3.53;;
56043;SDS011;41912;51.022;3.664;2022-10-31T00:21:25;11.30;;;3.90;;
56043;SDS011;41912;51.022;3.664;2022-10-31T00:23:52;7.15;;;4.05;;
56043;SDS011;41912;51.022;3.664;2022-10-31T00:26:17;5.95;;;3.42;;
56043;SDS011;41912;51.022;3.664;2022-10-31T00:28:43;7.15;;;3.30;;
56043;SDS011;41912;51.022;3.664;2022-10-31T00:31:10;9.88;;;3.83;;
56043;SDS011;41912;51.022;3.664;2022-10-31T00:33:37;9.23;;;3.63;;
56043;SDS011;41912;51.022;3.664;2022-10-31T00:36:04;6.03;;;3.40;;
56043;SDS011;41912;51.022;3.664;2022-10-31T00:38:31;6.05;;;3.95;;
56043;SDS011;41912;51.022;3.664;2022-10-31T00:40:57;6.63;;;3.85;;
56043;SDS011;41912;51.022;3.664;2022-10-31T00:43:22;7.82;;;3.75;;
56043;SDS011;41912;51.022;3.664;2022-10-31T00:45:49;8.18;;;3.85;;
56043;SDS011;41912;51.022;3.664;2022-10-31T00:48:15;7.47;;;3.40;;
56043;SDS011;41912;51.022;3.664;2022-10-31T00:50:40;6.43;;;4.03;;
56043;SDS011;41912;51.022;3.664;2022-10-31T00:53:06;5.60;;;2.97;;
56043;SDS011;41912;51.022;3.664;2022-10-31T00:55:32;9.70;;;3.50;;
56043;SDS011;41912;51.022;3.664;2022-10-31T00:57:58;9.70;;;3.22;;
56043;SDS011;41912;51.022;3.664;2022-10-31T01:00:24;6.90;;;3.92;;
56043;SDS011;41912;51.022;3.664;2022-10-31T01:02:49;9.93;;;3.55;;
56043;SDS011;41912;51.022;3.664;2022-10-31T01:05:15;6.18;;;3.90;;
56043;SDS011;41912;51.022;3.664;2022-10-31T01:07:41;8.45;;;3.40;;
56043;SDS011;41912;51.022;3.664;2022-10-31T01:10:08;6.50;;;3.88;;
56043;SDS011;41912;51.022;3.664;2022-10-31T01:12:38;7.13;;;3.47;;
56043;SDS011;41912;51.022;3.664;2022-10-31T01:15:09;10.65;;;3.80;;
56043;SDS011;41912;51.022;3.664;2022-10-31T01:17:36;7.05;;;3.53;;
56043;SDS011;41912;51.022;3.664;2022-10-31T01:20:02;6.60;;;3.70;;
56043;SDS011;41912;51.022;3.664;2022-10-31T01:22:28;8.63;;;3.65;;
56043;SDS011;41912;51.022;3.664;2022-10-31T01:24:54;9.30;;;3.40;;
56043;SDS011;41912;51.022;3.664;2022-10-31T01:27:19;5.65;;;3.65;;
56043;SDS011;41912;51.022;3.664;2022-10-31T01:29:45;7.28;;;3.45;;
56043;SDS011;41912;51.022;3.664;2022-10-31T01:32:11;7.95;;;4.10;;
56043;SDS011;41912;51.022;3.664;2022-10-31T01:34:36;10.02;;;4.68;;
56043;SDS011;41912;51.022;3.664;2022-10-31T01:37:02;5.07;;;3.20;;
56043;SDS011;41912;51.022;3.664;2022-10-31T01:39:27;5.32;;;3.47;;
56043;SDS011;41912;51.022;3.664;2022-10-31T01:41:53;8.85;;;3.72;;
56043;SDS011;41912;51.022;3.664;2022-10-31T01:46:47;10.60;;;3.70;;
56043;SDS011;41912;51.022;3.664;2022-10-31T01:52:18;7.43;;;3.25;;
56043;SDS011;41912;51.022;3.664;2022-10-31T01:54:46;10.10;;;3.45;;
56043;SDS011;41912;51.022;3.664;2022-10-31T01:57:16;6.75;;;4.05;;
56043;SDS011;41912;51.022;3.664;2022-10-31T01:59:44;10.23;;;3.67;;
56043;SDS011;41912;51.022;3.664;2022-10-31T02:02:15;7.20;;;3.97;;
56043;SDS011;41912;51.022;3.664;2022-10-31T02:04:43;6.10;;;3.75;;
56043;SDS011;41912;51.022;3.664;2022-10-31T02:07:10;7.22;;;3.47;;
56043;SDS011;41912;51.022;3.664;2022-10-31T02:09:48;7.75;;;3.67;;
56043;SDS011;41912;51.022;3.664;2022-10-31T02:12:15;7.45;;;3.65;;
56043;SDS011;41912;51.022;3.664;2022-10-31T02:14:42;10.07;;;4.32;;
56043;SDS011;41912;51.022;3.664;2022-10-31T02:17:08;5.00;;;3.55;;
56043;SDS011;41912;51.022;3.664;2022-10-31T02:19:35;6.45;;;3.95;;
56043;SDS011;41912;51.022;3.664;2022-10-31T02:25:08;5.82;;;3.28;;
56043;SDS011;41912;51.022;3.664;2022-10-31T02:30:24;7.93;;;3.85;;
56043;SDS011;41912;51.022;3.664;2022-10-31T02:33:06;7.90;;;4.20;;
56043;SDS011;41912;51.022;3.664;2022-10-31T02:35:49;9.68;;;3.90;;
56043;SDS011;41912;51.022;3.664;2022-10-31T02:43:48;7.57;;;3.85;;
56043;SDS011;41912;51.022;3.664;2022-10-31T02:49:38;6.07;;;3.70;;
56043;SDS011;41912;51.022;3.664;2022-10-31T02:52:43;10.73;;;4.40;;
56043;SDS011;41912;51.022;3.664;2022-10-31T02:55:38;8.90;;;4.15;;
56043;SDS011;41912;51.022;3.664;2022-10-31T02:58:02;7.43;;;3.78;;
56043;SDS011;41912;51.022;3.664;2022-10-31T03:00:33;8.88;;;4.28;;
56043;SDS011;41912;51.022;3.664;2022-10-31T03:03:23;9.70;;;3.80;;
56043;SDS011;41912;51.022;3.664;2022-10-31T03:08:45;10.95;;;4.35;;
56043;SDS011;41912;51.022;3.664;2022-10-31T03:11:57;10.02;;;4.28;;
56043;SDS011;41912;51.022;3.664;2022-10-31T03:17:02;10.73;;;4.88;;
56043;SDS011;41912;51.022;3.664;2022-10-31T03:19:33;9.60;;;4.25;;
56043;SDS011;41912;51.022;3.664;2022-10-31T03:24:41;9.23;;;4.15;;
56043;SDS011;41912;51.022;3.664;2022-10-31T03:27:08;8.52;;;4.75;;
56043;SDS011;41912;51.022;3.664;2022-10-31T03:29:37;8.00;;;4.63;;
56043;SDS011;41912;51.022;3.664;2022-10-31T03:32:08;6.75;;;3.90;;
56043;SDS011;41912;51.022;3.664;2022-10-31T03:34:38;6.80;;;4.32;;
56043;SDS011;41912;51.022;3.664;2022-10-31T03:37:08;11.90;;;4.25;;
56043;SDS011;41912;51.022;3.664;2022-10-31T03:39:38;9.43;;;4.10;;
56043;SDS011;41912;51.022;3.664;2022-10-31T03:42:09;9.85;;;3.85;;
56043;SDS011;41912;51.022;3.664;2022-10-31T03:45:02;8.38;;;3.78;;
56043;SDS011;41912;51.022;3.664;2022-10-31T03:47:35;10.02;;;4.80;;
56043;SDS011;41912;51.022;3.664;2022-10-31T03:50:03;13.30;;;4.35;;
56043;SDS011;41912;51.022;3.664;2022-10-31T03:52:44;8.32;;;4.18;;
56043;SDS011;41912;51.022;3.664;2022-10-31T03:55:18;11.40;;;4.57;;
56043;SDS011;41912;51.022;3.664;2022-10-31T03:57:53;12.30;;;4.20;;
56043;SDS011;41912;51.022;3.664;2022-10-31T04:00:21;6.55;;;4.47;;
56043;SDS011;41912;51.022;3.664;2022-10-31T04:03:00;7.20;;;4.28;;
56043;SDS011;41912;51.022;3.664;2022-10-31T04:05:30;8.65;;;4.43;;
56043;SDS011;41912;51.022;3.664;2022-10-31T04:07:56;9.35;;;4.32;;
56043;SDS011;41912;51.022;3.664;2022-10-31T04:10:24;9.68;;;4.10;;
56043;SDS011;41912;51.022;3.664;2022-10-31T04:12:54;9.15;;;4.13;;
56043;SDS011;41912;51.022;3.664;2022-10-31T04:15:25;10.18;;;4.07;;
56043;SDS011;41912;51.022;3.664;2022-10-31T04:17:53;7.25;;;4.13;;
56043;SDS011;41912;51.022;3.664;2022-10-31T04:20:34;9.13;;;4.25;;
56043;SDS011;41912;51.022;3.664;2022-10-31T04:23:02;7.03;;;4.38;;
56043;SDS011;41912;51.022;3.664;2022-10-31T04:25:28;9.57;;;4.50;;
56043;SDS011;41912;51.022;3.664;2022-10-31T04:27:54;8.73;;;4.35;;
56043;SDS011;41912;51.022;3.664;2022-10-31T04:30:20;6.20;;;3.83;;
56043;SDS011;41912;51.022;3.664;2022-10-31T04:32:46;10.32;;;4.13;;
56043;SDS011;41912;51.022;3.664;2022-10-31T04:35:11;7.13;;;4.07;;
56043;SDS011;41912;51.022;3.664;2022-10-31T04:37:37;10.40;;;4.97;;
56043;SDS011;41912;51.022;3.664;2022-10-31T04:40:03;11.55;;;4.70;;
56043;SDS011;41912;51.022;3.664;2022-10-31T04:42:32;11.02;;;4.28;;
56043;SDS011;41912;51.022;3.664;2022-10-31T04:44:58;6.97;;;3.90;;
56043;SDS011;41912;51.022;3.664;2022-10-31T04:47:23;9.18;;;4.70;;
56043;SDS011;41912;51.022;3.664;2022-10-31T04:49:49;8.18;;;3.90;;
56043;SDS011;41912;51.022;3.664;2022-10-31T04:52:14;9.07;;;4.68;;
56043;SDS011;41912;51.022;3.664;2022-10-31T04:54:40;6.10;;;3.58;;
56043;SDS011;41912;51.022;3.664;2022-10-31T04:57:05;9.35;;;4.05;;
56043;SDS011;41912;51.022;3.664;2022-10-31T04:59:31;9.98;;;4.10;;
56043;SDS011;41912;51.022;3.664;2022-10-31T05:01:56;9.50;;;4.05;;
56043;SDS011;41912;51.022;3.664;2022-10-31T05:04:22;7.30;;;4.75;;
56043;SDS011;41912;51.022;3.664;2022-10-31T05:06:48;6.97;;;3.97;;
56043;SDS011;41912;51.022;3.664;2022-10-31T05:09:13;11.52;;;4.72;;
56043;SDS011;41912;51.022;3.664;2022-10-31T05:11:39;10.32;;;5.35;;
56043;SDS011;41912;51.022;3.664;2022-10-31T05:14:04;9.65;;;4.20;;
56043;SDS011;41912;51.022;3.664;2022-10-31T05:16:30;7.65;;;4.28;;
56043;SDS011;41912;51.022;3.664;2022-10-31T05:18:56;8.10;;;4.22;;
56043;SDS011;41912;51.022;3.664;2022-10-31T05:21:21;10.77;;;4.40;;
56043;SDS011;41912;51.022;3.664;2022-10-31T05:23:47;10.43;;;4.50;;
56043;SDS011;41912;51.022;3.664;2022-10-31T05:26:12;7.85;;;4.65;;
56043;SDS011;41912;51.022;3.664;2022-10-31T05:28:38;9.85;;;4.55;;
56043;SDS011;41912;51.022;3.664;2022-10-31T05:31:04;8.25;;;4.38;;
56043;SDS011;41912;51.022;3.664;2022-10-31T05:33:29;9.48;;;4.25;;
56043;SDS011;41912;51.022;3.664;2022-10-31T05:35:55;7.90;;;4.32;;
56043;SDS011;41912;51.022;3.664;2022-10-31T05:38:20;10.55;;;4.72;;
56043;SDS011;41912;51.022;3.664;2022-10-31T05:40:46;8.95;;;4.72;;
56043;SDS011;41912;51.022;3.664;2022-10-31T05:43:12;10.60;;;4.38;;
56043;SDS011;41912;51.022;3.664;2022-10-31T05:45:37;6.78;;;3.92;;
56043;SDS011;41912;51.022;3.664;2022-10-31T05:48:03;8.13;;;4.50;;
56043;SDS011;41912;51.022;3.664;2022-10-31T05:50:29;12.38;;;4.45;;
56043;SDS011;41912;51.022;3.664;2022-10-31T05:55:22;8.43;;;4.43;;
56043;SDS011;41912;51.022;3.664;2022-10-31T05:57:48;9.60;;;4.47;;
56043;SDS011;41912;51.022;3.664;2022-10-31T06:00:14;5.97;;;3.83;;
56043;SDS011;41912;51.022;3.664;2022-10-31T06:02:39;7.20;;;4.65;;
56043;SDS011;41912;51.022;3.664;2022-10-31T06:05:05;9.80;;;4.35;;
56043;SDS011;41912;51.022;3.664;2022-10-31T06:07:31;8.90;;;4.78;;
56043;SDS011;41912;51.022;3.664;2022-10-31T06:10:01;9.50;;;4.82;;
56043;SDS011;41912;51.022;3.664;2022-10-31T06:12:29;10.88;;;4.13;;
56043;SDS011;41912;51.022;3.664;2022-10-31T06:14:55;7.95;;;4.65;;
56043;SDS011;41912;51.022;3.664;2022-10-31T06:17:20;6.45;;;4.85;;
56043;SDS011;41912;51.022;3.664;2022-10-31T06:19:46;7.22;;;4.72;;
56043;SDS011;41912;51.022;3.664;2022-10-31T06:22:12;6.95;;;4.63;;
56043;SDS011;41912;51.022;3.664;2022-10-31T06:24:37;8.18;;;4.60;;
56043;SDS011;41912;51.022;3.664;2022-10-31T06:27:03;10.10;;;5.57;;
56043;SDS011;41912;51.022;3.664;2022-10-31T06:29:30;11.07;;;5.10;;
56043;SDS011;41912;51.022;3.664;2022-10-31T06:31:55;10.23;;;5.45;;
56043;SDS011;41912;51.022;3.664;2022-10-31T06:34:21;8.20;;;6.20;;
56043;SDS011;41912;51.022;3.664;2022-10-31T06:36:46;8.77;;;5.90;;
56043;SDS011;41912;51.022;3.664;2022-10-31T06:39:12;9.85;;;5.30;;
56043;SDS011;41912;51.022;3.664;2022-10-31T06:41:38;10.18;;;5.72;;
56043;SDS011;41912;51.022;3.664;2022-10-31T06:44:05;10.52;;;6.28;;
56043;SDS011;41912;51.022;3.664;2022-10-31T06:46:31;9.30;;;4.95;;
56043;SDS011;41912;51.022;3.664;2022-10-31T06:48:56;10.63;;;5.28;;
56043;SDS011;41912;51.022;3.664;2022-10-31T06:51:22;9.80;;;4.90;;
56043;SDS011;41912;51.022;3.664;2022-10-31T06:53:48;15.52;;;5.70;;
56043;SDS011;41912;51.022;3.664;2022-10-31T06:56:14;22.85;;;6.18;;
56043;SDS011;41912;51.022;3.664;2022-10-31T06:58:39;11.70;;;5.88;;
56043;SDS011;41912;51.022;3.664;2022-10-31T07:01:05;10.52;;;5.00;;
56043;SDS011;41912;51.022;3.664;2022-10-31T07:03:31;10.02;;;6.07;;
56043;SDS011;41912;51.022;3.664;2022-10-31T07:05:57;10.93;;;5.13;;
56043;SDS011;41912;51.022;3.664;2022-10-31T07:08:22;12.45;;;5.43;;
56043;SDS011;41912;51.022;3.664;2022-10-31T07:10:52;10.65;;;6.72;;
56043;SDS011;41912;51.022;3.664;2022-10-31T07:13:19;9.80;;;5.95;;
56043;SDS011;41912;51.022;3.664;2022-10-31T07:15:49;13.75;;;5.68;;
56043;SDS011;41912;51.022;3.664;2022-10-31T07:18:16;10.43;;;5.97;;
56043;SDS011;41912;51.022;3.664;2022-10-31T07:20:41;17.92;;;6.57;;
56043;SDS011;41912;51.022;3.664;2022-10-31T07:23:08;13.43;;;7.05;;
56043;SDS011;41912;51.022;3.664;2022-10-31T07:25:37;19.25;;;8.40;;
56043;SDS011;41912;51.022;3.664;2022-10-31T07:28:03;13.18;;;7.28;;
56043;SDS011;41912;51.022;3.664;2022-10-31T07:30:29;19.02;;;7.78;;
56043;SDS011;41912;51.022;3.664;2022-10-31T07:32:55;11.98;;;7.55;;
56043;SDS011;41912;51.022;3.664;2022-10-31T07:35:22;14.60;;;7.25;;
56043;SDS011;41912;51.022;3.664;2022-10-31T07:37:49;13.43;;;8.18;;
56043;SDS011;41912;51.022;3.664;2022-10-31T07:40:15;13.55;;;7.45;;
56043;SDS011;41912;51.022;3.664;2022-10-31T07:42:43;15.30;;;8.23;;
56043;SDS011;41912;51.022;3.664;2022-10-31T07:45:12;14.15;;;8.23;;
56043;SDS011;41912;51.022;3.664;2022-10-31T07:47:45;29.00;;;9.68;;
56043;SDS011;41912;51.022;3.664;2022-10-31T07:50:13;28.85;;;9.57;;
56043;SDS011;41912;51.022;3.664;2022-10-31T07:52:40;26.80;;;10.30;;
56043;SDS011;41912;51.022;3.664;2022-10-31T07:55:06;31.52;;;10.98;;
56043;SDS011;41912;51.022;3.664;2022-10-31T07:57:32;34.92;;;11.30;;
56043;SDS011;41912;51.022;3.664;2022-10-31T07:59:58;35.03;;;10.93;;
56043;SDS011;41912;51.022;3.664;2022-10-31T08:02:24;33.33;;;10.38;;
56043;SDS011;41912;51.022;3.664;2022-10-31T08:04:50;34.22;;;10.20;;
56043;SDS011;41912;51.022;3.664;2022-10-31T08:07:16;35.03;;;11.30;;
56043;SDS011;41912;51.022;3.664;2022-10-31T08:09:42;39.00;;;11.75;;
56043;SDS011;41912;51.022;3.664;2022-10-31T08:12:07;36.75;;;10.63;;
56043;SDS011;41912;51.022;3.664;2022-10-31T08:14:33;32.13;;;10.77;;
56043;SDS011;41912;51.022;3.664;2022-10-31T08:16:59;29.65;;;9.30;;
56043;SDS011;41912;51.022;3.664;2022-10-31T08:19:24;35.78;;;10.88;;
56043;SDS011;41912;51.022;3.664;2022-10-31T08:21:50;23.48;;;8.85;;
56043;SDS011;41912;51.022;3.664;2022-10-31T08:24:17;25.40;;;8.68;;
56043;SDS011;41912;51.022;3.664;2022-10-31T08:26:43;22.67;;;7.22;;
56043;SDS011;41912;51.022;3.664;2022-10-31T08:29:09;20.05;;;7.32;;
56043;SDS011;41912;51.022;3.664;2022-10-31T08:31:34;17.10;;;7.43;;
56043;SDS011;41912;51.022;3.664;2022-10-31T08:34:00;22.13;;;8.10;;
56043;SDS011;41912;51.022;3.664;2022-10-31T08:36:26;23.30;;;8.90;;
56043;SDS011;41912;51.022;3.664;2022-10-31T08:38:52;37.92;;;12.63;;
56043;SDS011;41912;51.022;3.664;2022-10-31T08:41:18;44.03;;;12.50;;
56043;SDS011;41912;51.022;3.664;2022-10-31T08:43:43;29.52;;;12.93;;
56043;SDS011;41912;51.022;3.664;2022-10-31T08:46:09;28.10;;;11.48;;
56043;SDS011;41912;51.022;3.664;2022-10-31T08:48:35;23.55;;;11.70;;
56043;SDS011;41912;51.022;3.664;2022-10-31T08:51:00;25.23;;;11.65;;
56043;SDS011;41912;51.022;3.664;2022-10-31T08:53:26;22.38;;;11.57;;
56043;SDS011;41912;51.022;3.664;2022-10-31T08:55:54;27.77;;;12.43;;
56043;SDS011;41912;51.022;3.664;2022-10-31T08:58:20;31.30;;;12.45;;
56043;SDS011;41912;51.022;3.664;2022-10-31T09:00:47;34.13;;;14.40;;
56043;SDS011;41912;51.022;3.664;2022-10-31T09:03:19;25.35;;;12.27;;
56043;SDS011;41912;51.022;3.664;2022-10-31T09:05:47;22.40;;;12.40;;
56043;SDS011;41912;51.022;3.664;2022-10-31T09:08:13;23.42;;;11.98;;
56043;SDS011;41912;51.022;3.664;2022-10-31T09:10:40;20.33;;;11.27;;
56043;SDS011;41912;51.022;3.664;2022-10-31T09:13:08;21.00;;;10.68;;
56043;SDS011;41912;51.022;3.664;2022-10-31T09:15:39;18.17;;;11.27;;
56043;SDS011;41912;51.022;3.664;2022-10-31T09:18:06;19.83;;;11.13;;
56043;SDS011;41912;51.022;3.664;2022-10-31T09:20:33;21.67;;;11.55;;
56043;SDS011;41912;51.022;3.664;2022-10-31T09:23:01;16.35;;;10.55;;
56043;SDS011;41912;51.022;3.664;2022-10-31T09:25:29;21.60;;;11.20;;
56043;SDS011;41912;51.022;3.664;2022-10-31T09:27:55;16.95;;;10.63;;
56043;SDS011;41912;51.022;3.664;2022-10-31T09:30:22;19.88;;;11.43;;
56043;SDS011;41912;51.022;3.664;2022-10-31T09:32:48;24.05;;;11.90;;
56043;SDS011;41912;51.022;3.664;2022-10-31T09:35:19;17.10;;;10.70;;
56043;SDS011;41912;51.022;3.664;2022-10-31T09:37:44;21.80;;;11.65;;
56043;SDS011;41912;51.022;3.664;2022-10-31T09:40:10;21.75;;;11.73;;
56043;SDS011;41912;51.022;3.664;2022-10-31T09:48:06;26.63;;;12.15;;
56043;SDS011;41912;51.022;3.664;2022-10-31T09:50:42;19.48;;;12.05;;
56043;SDS011;41912;51.022;3.664;2022-10-31T09:55:47;19.83;;;11.57;;
56043;SDS011;41912;51.022;3.664;2022-10-31T09:58:15;18.17;;;11.77;;
56043;SDS011;41912;51.022;3.664;2022-10-31T10:00:44;23.58;;;11.63;;
56043;SDS011;41912;51.022;3.664;2022-10-31T10:06:22;21.40;;;12.10;;
56043;SDS011;41912;51.022;3.664;2022-10-31T10:08:51;22.20;;;11.67;;
56043;SDS011;41912;51.022;3.664;2022-10-31T10:11:23;29.23;;;12.05;;
56043;SDS011;41912;51.022;3.664;2022-10-31T10:28:16;20.05;;;12.23;;
56043;SDS011;41912;51.022;3.664;2022-10-31T10:30:51;23.60;;;11.93;;
56043;SDS011;41912;51.022;3.664;2022-10-31T10:33:27;24.92;;;12.10;;
56043;SDS011;41912;51.022;3.664;2022-10-31T10:36:04;22.33;;;11.48;;
56043;SDS011;41912;51.022;3.664;2022-10-31T10:41:04;22.30;;;12.45;;
56043;SDS011;41912;51.022;3.664;2022-10-31T10:54:37;24.20;;;13.38;;
56043;SDS011;41912;51.022;3.664;2022-10-31T10:59:59;21.70;;;11.85;;
56043;SDS011;41912;51.022;3.664;2022-10-31T11:02:31;21.55;;;11.32;;
56043;SDS011;41912;51.022;3.664;2022-10-31T11:04:58;23.50;;;11.15;;
56043;SDS011;41912;51.022;3.664;2022-10-31T11:07:25;29.52;;;12.82;;
56043;SDS011;41912;51.022;3.664;2022-10-31T11:10:05;26.70;;;12.07;;
56043;SDS011;41912;51.022;3.664;2022-10-31T11:12:39;20.25;;;10.90;;
56043;SDS011;41912;51.022;3.664;2022-10-31T11:15:24;24.90;;;10.80;;
56043;SDS011;41912;51.022;3.664;2022-10-31T11:17:51;20.73;;;11.90;;
56043;SDS011;41912;51.022;3.664;2022-10-31T11:22:45;26.38;;;11.73;;
56043;SDS011;41912;51.022;3.664;2022-10-31T11:28:03;20.17;;;9.85;;
56043;SDS011;41912;51.022;3.664;2022-10-31T11:30:35;23.85;;;10.52;;
56043;SDS011;41912;51.022;3.664;2022-10-31T11:33:14;18.02;;;10.23;;
56043;SDS011;41912;51.022;3.664;2022-10-31T11:36:02;19.83;;;10.90;;
56043;SDS011;41912;51.022;3.664;2022-10-31T11:38:49;20.00;;;11.07;;
56043;SDS011;41912;51.022;3.664;2022-10-31T11:41:34;24.65;;;11.13;;
56043;SDS011;41912;51.022;3.664;2022-10-31T11:44:15;21.85;;;10.00;;
56043;SDS011;41912;51.022;3.664;2022-10-31T11:46:45;20.38;;;10.93;;
56043;SDS011;41912;51.022;3.664;2022-10-31T11:51:51;25.45;;;10.77;;
56043;SDS011;41912;51.022;3.664;2022-10-31T11:54:23;21.83;;;10.88;;
56043;SDS011;41912;51.022;3.664;2022-10-31T11:56:52;18.30;;;11.10;;
56043;SDS011;41912;51.022;3.664;2022-10-31T11:59:21;22.27;;;10.93;;
56043;SDS011;41912;51.022;3.664;2022-10-31T12:01:48;21.55;;;11.50;;
56043;SDS011;41912;51.022;3.664;2022-10-31T12:04:15;19.58;;;11.48;;
56043;SDS011;41912;51.022;3.664;2022-10-31T12:06:44;25.30;;;10.82;;
56043;SDS011;41912;51.022;3.664;2022-10-31T12:22:59;28.40;;;11.80;;
56043;SDS011;41912;51.022;3.664;2022-10-31T12:25:42;19.45;;;10.15;;
56043;SDS011;41912;51.022;3.664;2022-10-31T12:31:03;23.30;;;10.73;;
56043;SDS011;41912;51.022;3.664;2022-10-31T12:37:09;20.10;;;10.15;;
56043;SDS011;41912;51.022;3.664;2022-10-31T12:42:43;27.88;;;10.60;;
56043;SDS011;41912;51.022;3.664;2022-10-31T12:57:19;21.52;;;11.02;;
56043;SDS011;41912;51.022;3.664;2022-10-31T12:59:50;19.05;;;10.68;;
56043;SDS011;41912;51.022;3.664;2022-10-31T13:02:42;23.90;;;11.00;;
56043;SDS011;41912;51.022;3.664;2022-10-31T13:13:12;28.42;;;11.40;;
56043;SDS011;41912;51.022;3.664;2022-10-31T13:16:01;18.15;;;10.73;;
56043;SDS011;41912;51.022;3.664;2022-10-31T13:18:35;23.42;;;11.00;;
56043;SDS011;41912;51.022;3.664;2022-10-31T13:21:12;20.30;;;10.32;;
56043;SDS011;41912;51.022;3.664;2022-10-31T13:24:12;23.23;;;11.27;;
56043;SDS011;41912;51.022;3.664;2022-10-31T13:31:55;19.13;;;10.85;;
56043;SDS011;41912;51.022;3.664;2022-10-31T13:37:21;23.75;;;10.63;;
56043;SDS011;41912;51.022;3.664;2022-10-31T13:45:12;26.92;;;12.30;;
56043;SDS011;41912;51.022;3.664;2022-10-31T13:47:42;20.60;;;10.95;;
56043;SDS011;41912;51.022;3.664;2022-10-31T13:52:42;23.40;;;10.57;;
56043;SDS011;41912;51.022;3.664;2022-10-31T13:55:33;22.30;;;11.57;;
56043;SDS011;41912;51.022;3.664;2022-10-31T13:58:21;22.02;;;10.95;;
56043;SDS011;41912;51.022;3.664;2022-10-31T14:00:59;19.33;;;11.32;;
56043;SDS011;41912;51.022;3.664;2022-10-31T14:03:44;23.58;;;10.70;;
56043;SDS011;41912;51.022;3.664;2022-10-31T14:06:12;17.17;;;10.27;;
56043;SDS011;41912;51.022;3.664;2022-10-31T14:08:41;20.98;;;10.15;;
56043;SDS011;41912;51.022;3.664;2022-10-31T14:11:23;21.67;;;9.80;;
56043;SDS011;41912;51.022;3.664;2022-10-31T14:13:52;18.98;;;10.73;;
56043;SDS011;41912;51.022;3.664;2022-10-31T14:16:21;19.42;;;10.63;;
56043;SDS011;41912;51.022;3.664;2022-10-31T14:18:59;22.15;;;11.27;;
56043;SDS011;41912;51.022;3.664;2022-10-31T14:21:29;30.77;;;11.98;;
56043;SDS011;41912;51.022;3.664;2022-10-31T14:23:56;22.17;;;10.60;;
56043;SDS011;41912;51.022;3.664;2022-10-31T14:28:49;22.13;;;11.07;;
56043;SDS011;41912;51.022;3.664;2022-10-31T14:31:32;25.30;;;10.80;;
56043;SDS011;41912;51.022;3.664;2022-10-31T14:34:26;19.65;;;10.75;;
56043;SDS011;41912;51.022;3.664;2022-10-31T14:45:49;23.98;;;11.70;;
56043;SDS011;41912;51.022;3.664;2022-10-31T14:51:16;24.00;;;11.63;;
56043;SDS011;41912;51.022;3.664;2022-10-31T14:56:13;24.15;;;12.82;;
56043;SDS011;41912;51.022;3.664;2022-10-31T14:58:54;26.05;;;11.57;;
56043;SDS011;41912;51.022;3.664;2022-10-31T15:01:27;25.13;;;11.60;;
56043;SDS011;41912;51.022;3.664;2022-10-31T15:03:58;20.13;;;11.50;;
56043;SDS011;41912;51.022;3.664;2022-10-31T15:06:30;25.77;;;11.88;;
56043;SDS011;41912;51.022;3.664;2022-10-31T15:09:04;31.00;;;12.20;;
56043;SDS011;41912;51.022;3.664;2022-10-31T15:11:35;23.77;;;11.15;;
56043;SDS011;41912;51.022;3.664;2022-10-31T15:14:05;25.23;;;12.23;;
56043;SDS011;41912;51.022;3.664;2022-10-31T15:16:48;27.55;;;12.50;;
56043;SDS011;41912;51.022;3.664;2022-10-31T15:19:16;27.30;;;12.60;;
56043;SDS011;41912;51.022;3.664;2022-10-31T15:21:50;24.45;;;11.40;;
56043;SDS011;41912;51.022;3.664;2022-10-31T15:24:17;28.40;;;11.85;;
56043;SDS011;41912;51.022;3.664;2022-10-31T15:26:46;22.55;;;11.85;;
56043;SDS011;41912;51.022;3.664;2022-10-31T15:29:16;24.25;;;12.18;;
56043;SDS011;41912;51.022;3.664;2022-10-31T15:31:56;22.95;;;12.63;;
56043;SDS011;41912;51.022;3.664;2022-10-31T15:34:42;29.38;;;12.95;;
56043;SDS011;41912;51.022;3.664;2022-10-31T15:37:09;22.30;;;12.07;;
56043;SDS011;41912;51.022;3.664;2022-10-31T15:39:40;39.05;;;13.25;;
56043;SDS011;41912;51.022;3.664;2022-10-31T15:44:45;25.88;;;12.05;;
56043;SDS011;41912;51.022;3.664;2022-10-31T15:47:22;22.38;;;11.55;;
56043;SDS011;41912;51.022;3.664;2022-10-31T15:49:50;25.10;;;12.55;;
56043;SDS011;41912;51.022;3.664;2022-10-31T15:52:24;26.60;;;13.77;;
56043;SDS011;41912;51.022;3.664;2022-10-31T15:57:38;23.48;;;11.90;;
56043;SDS011;41912;51.022;3.664;2022-10-31T16:00:06;25.67;;;14.15;;
56043;SDS011;41912;51.022;3.664;2022-10-31T16:02:46;29.23;;;12.27;;
56043;SDS011;41912;51.022;3.664;2022-10-31T16:05:15;22.15;;;10.80;;
56043;SDS011;41912;51.022;3.664;2022-10-31T16:07:49;27.30;;;12.57;;
56043;SDS011;41912;51.022;3.664;2022-10-31T16:10:23;28.90;;;11.68;;
56043;SDS011;41912;51.022;3.664;2022-10-31T16:12:50;25.85;;;11.57;;
56043;SDS011;41912;51.022;3.664;2022-10-31T16:15:17;21.08;;;11.23;;
56043;SDS011;41912;51.022;3.664;2022-10-31T16:17:46;27.23;;;11.05;;
56043;SDS011;41912;51.022;3.664;2022-10-31T16:20:27;22.45;;;10.43;;
56043;SDS011;41912;51.022;3.664;2022-10-31T16:25:27;24.40;;;9.85;;
56043;SDS011;41912;51.022;3.664;2022-10-31T16:28:03;20.77;;;9.60;;
56043;SDS011;41912;51.022;3.664;2022-10-31T16:30:40;31.35;;;12.00;;
56043;SDS011;41912;51.022;3.664;2022-10-31T16:35:54;20.80;;;10.30;;
56043;SDS011;41912;51.022;3.664;2022-10-31T16:38:21;21.17;;;10.52;;
56043;SDS011;41912;51.022;3.664;2022-10-31T16:40:47;19.58;;;10.52;;
56043;SDS011;41912;51.022;3.664;2022-10-31T16:43:15;23.70;;;10.40;;
56043;SDS011;41912;51.022;3.664;2022-10-31T16:45:49;22.75;;;10.20;;
56043;SDS011;41912;51.022;3.664;2022-10-31T16:48:20;17.50;;;8.98;;
56043;SDS011;41912;51.022;3.664;2022-10-31T16:50:48;33.30;;;9.77;;
56043;SDS011;41912;51.022;3.664;2022-10-31T16:53:15;35.30;;;10.02;;
56043;SDS011;41912;51.022;3.664;2022-10-31T16:55:56;22.35;;;8.40;;
56043;SDS011;41912;51.022;3.664;2022-10-31T16:58:29;18.17;;;8.48;;
56043;SDS011;41912;51.022;3.664;2022-10-31T17:00:57;24.40;;;11.00;;
56043;SDS011;41912;51.022;3.664;2022-10-31T17:03:28;26.95;;;12.85;;
56043;SDS011;41912;51.022;3.664;2022-10-31T17:05:55;29.75;;;14.45;;
56043;SDS011;41912;51.022;3.664;2022-10-31T17:08:21;28.00;;;14.40;;
56043;SDS011;41912;51.022;3.664;2022-10-31T17:10:47;28.88;;;12.88;;
56043;SDS011;41912;51.022;3.664;2022-10-31T17:13:17;24.80;;;9.73;;
56043;SDS011;41912;51.022;3.664;2022-10-31T17:15:46;18.58;;;10.43;;
56043;SDS011;41912;51.022;3.664;2022-10-31T17:18:15;16.67;;;8.82;;
56043;SDS011;41912;51.022;3.664;2022-10-31T17:20:42;20.85;;;8.32;;
56043;SDS011;41912;51.022;3.664;2022-10-31T17:23:09;15.18;;;7.95;;
56043;SDS011;41912;51.022;3.664;2022-10-31T17:25:35;18.52;;;8.65;;
56043;SDS011;41912;51.022;3.664;2022-10-31T17:28:02;24.45;;;9.48;;
56043;SDS011;41912;51.022;3.664;2022-10-31T17:30:28;25.58;;;12.43;;
56043;SDS011;41912;51.022;3.664;2022-10-31T17:32:55;21.90;;;10.27;;
56043;SDS011;41912;51.022;3.664;2022-10-31T17:35:20;28.10;;;11.25;;